sensor_id;sensor_type;location;lat;lon;timestamp;temperature;humidity
38902;DHT22;24661;53.566;9.910;2023-07-20T00:00:05;13.80;99.90
38902;DHT22;24661;53.566;9.910;2023-07-20T00:02:31;13.80;99.90
38902;DHT22;24661;53.566;9.910;2023-07-20T00:04:56;13.80;99.90
38902;DHT22;24661;53.566;9.910;2023-07-20T00:07:22;13.90;99.90
38902;DHT22;24661;53.566;9.910;2023-07-20T00:09:47;13.90;99.90
38902;DHT22;24661;53.566;9.910;2023-07-20T00:12:14;13.90;99.90
38902;DHT22;24661;53.566;9.910;2023-07-20T00:14:39;14.00;99.90
38902;DHT22;24661;53.566;9.910;2023-07-20T00:17:05;14.00;99.90
38902;DHT22;24661;53.566;9.910;2023-07-20T00:19:30;14.00;99.90
38902;DHT22;24661;53.566;9.910;2023-07-20T00:21:57;14.00;99.90
38902;DHT22;24661;53.566;9.910;2023-07-20T00:24:23;14.00;99.90
38902;DHT22;24661;53.566;9.910;2023-07-20T00:26:49;14.00;99.90
38902;DHT22;24661;53.566;9.910;2023-07-20T00:29:14;14.00;99.90
38902;DHT22;24661;53.566;9.910;2023-07-20T00:31:40;14.00;99.90
38902;DHT22;24661;53.566;9.910;2023-07-20T00:34:06;14.00;99.90
38902;DHT22;24661;53.566;9.910;2023-07-20T00:36:32;14.10;99.90
38902;DHT22;24661;53.566;9.910;2023-07-20T00:38:58;14.10;99.90
38902;DHT22;24661;53.566;9.910;2023-07-20T00:41:23;14.10;99.90
38902;DHT22;24661;53.566;9.910;2023-07-20T00:43:49;14.20;99.90
38902;DHT22;24661;53.566;9.910;2023-07-20T00:46:16;14.20;99.90
38902;DHT22;24661;53.566;9.910;2023-07-20T00:48:42;14.20;99.90
38902;DHT22;24661;53.566;9.910;2023-07-20T00:51:08;14.20;99.90
38902;DHT22;24661;53.566;9.910;2023-07-20T00:53:33;14.20;99.90
38902;DHT22;24661;53.566;9.910;2023-07-20T00:55:59;14.20;99.90
38902;DHT22;24661;53.566;9.910;2023-07-20T00:58:25;14.20;99.90
38902;DHT22;24661;53.566;9.910;2023-07-20T01:00:51;14.20;99.90
38902;DHT22;24661;53.566;9.910;2023-07-20T01:03:16;14.10;99.90
38902;DHT22;24661;53.566;9.910;2023-07-20T01:05:50;14.10;99.90
38902;DHT22;24661;53.566;9.910;2023-07-20T01:08:26;14.10;99.90
38902;DHT22;24661;53.566;9.910;2023-07-20T01:10:59;14.00;99.90
38902;DHT22;24661;53.566;9.910;2023-07-20T01:13:28;14.00;99.90
38902;DHT22;24661;53.566;9.910;2023-07-20T01:16:00;14.00;99.90
38902;DHT22;24661;53.566;9.910;2023-07-20T01:18:26;14.00;99.90
38902;DHT22;24661;53.566;9.910;2023-07-20T01:20:55;14.00;99.90
38902;DHT22;24661;53.566;9.910;2023-07-20T01:31:57;14.00;99.90
38902;DHT22;24661;53.566;9.910;2023-07-20T01:34:23;14.00;99.90
38902;DHT22;24661;53.566;9.910;2023-07-20T01:36:50;14.00;99.90
38902;DHT22;24661;53.566;9.910;2023-07-20T01:39:19;14.00;99.90
38902;DHT22;24661;53.566;9.910;2023-07-20T01:41:45;14.00;99.90
38902;DHT22;24661;53.566;9.910;2023-07-20T01:44:12;14.00;99.90
38902;DHT22;24661;53.566;9.910;2023-07-20T01:46:38;14.00;99.90
38902;DHT22;24661;53.566;9.910;2023-07-20T01:49:04;14.00;99.90
38902;DHT22;24661;53.566;9.910;2023-07-20T01:51:29;14.00;99.90
38902;DHT22;24661;53.566;9.910;2023-07-20T01:53:55;14.00;99.90
38902;DHT22;24661;53.566;9.910;2023-07-20T01:56:20;14.00;99.90
38902;DHT22;24661;53.566;9.910;2023-07-20T01:58:46;14.00;99.90
38902;DHT22;24661;53.566;9.910;2023-07-20T02:01:11;14.00;99.90
38902;DHT22;24661;53.566;9.910;2023-07-20T02:03:37;14.00;99.90
38902;DHT22;24661;53.566;9.910;2023-07-20T02:06:02;14.00;99.90
38902;DHT22;24661;53.566;9.910;2023-07-20T02:08:28;14.00;99.90
38902;DHT22;24661;53.566;9.910;2023-07-20T02:10:53;14.00;99.90
38902;DHT22;24661;53.566;9.910;2023-07-20T02:13:19;14.00;99.90
38902;DHT22;24661;53.566;9.910;2023-07-20T02:15:44;13.90;99.90
38902;DHT22;24661;53.566;9.910;2023-07-20T02:18:12;14.00;99.90
38902;DHT22;24661;53.566;9.910;2023-07-20T02:20:38;14.00;99.90
38902;DHT22;24661;53.566;9.910;2023-07-20T02:23:03;14.00;99.90
38902;DHT22;24661;53.566;9.910;2023-07-20T02:25:29;14.00;99.90
38902;DHT22;24661;53.566;9.910;2023-07-20T02:27:56;13.90;99.90
38902;DHT22;24661;53.566;9.910;2023-07-20T02:30:22;13.90;99.90
38902;DHT22;24661;53.566;9.910;2023-07-20T02:32:48;13.90;99.90
38902;DHT22;24661;53.566;9.910;2023-07-20T02:35:16;13.90;99.90
38902;DHT22;24661;53.566;9.910;2023-07-20T02:37:42;13.90;99.90
38902;DHT22;24661;53.566;9.910;2023-07-20T02:40:08;13.80;99.90
38902;DHT22;24661;53.566;9.910;2023-07-20T02:42:34;13.80;99.90
38902;DHT22;24661;53.566;9.910;2023-07-20T02:45:02;13.80;99.90
38902;DHT22;24661;53.566;9.910;2023-07-20T02:47:29;13.80;99.90
38902;DHT22;24661;53.566;9.910;2023-07-20T02:49:54;13.80;99.90
38902;DHT22;24661;53.566;9.910;2023-07-20T02:52:20;13.80;99.90
38902;DHT22;24661;53.566;9.910;2023-07-20T02:54:45;13.80;99.90
38902;DHT22;24661;53.566;9.910;2023-07-20T02:57:11;13.80;99.90
38902;DHT22;24661;53.566;9.910;2023-07-20T02:59:36;13.80;99.90
38902;DHT22;24661;53.566;9.910;2023-07-20T03:02:02;13.80;99.90
38902;DHT22;24661;53.566;9.910;2023-07-20T03:04:28;13.80;99.90
38902;DHT22;24661;53.566;9.910;2023-07-20T03:06:54;13.80;99.90
38902;DHT22;24661;53.566;9.910;2023-07-20T03:09:19;13.80;99.90
38902;DHT22;24661;53.566;9.910;2023-07-20T03:11:45;13.80;99.90
38902;DHT22;24661;53.566;9.910;2023-07-20T03:14:10;13.80;99.90
38902;DHT22;24661;53.566;9.910;2023-07-20T03:16:36;13.80;99.90
38902;DHT22;24661;53.566;9.910;2023-07-20T03:19:02;13.80;99.90
38902;DHT22;24661;53.566;9.910;2023-07-20T03:21:29;13.80;99.90
38902;DHT22;24661;53.566;9.910;2023-07-20T03:23:54;13.80;99.90
38902;DHT22;24661;53.566;9.910;2023-07-20T03:26:20;13.70;99.90
38902;DHT22;24661;53.566;9.910;2023-07-20T03:28:46;13.70;99.90
38902;DHT22;24661;53.566;9.910;2023-07-20T03:31:11;13.70;99.90
38902;DHT22;24661;53.566;9.910;2023-07-20T03:33:37;13.70;99.90
38902;DHT22;24661;53.566;9.910;2023-07-20T03:36:03;15.40;99.90
38902;DHT22;24661;53.566;9.910;2023-07-20T03:38:28;13.70;99.90
38902;DHT22;24661;53.566;9.910;2023-07-20T03:40:56;13.80;99.90
38902;DHT22;24661;53.566;9.910;2023-07-20T03:43:22;13.80;99.90
38902;DHT22;24661;53.566;9.910;2023-07-20T03:45:48;13.80;99.90
38902;DHT22;24661;53.566;9.910;2023-07-20T03:48:19;13.80;99.90
38902;DHT22;24661;53.566;9.910;2023-07-20T03:50:46;13.80;99.90
38902;DHT22;24661;53.566;9.910;2023-07-20T03:53:15;13.80;99.90
38902;DHT22;24661;53.566;9.910;2023-07-20T03:55:41;13.80;99.90
38902;DHT22;24661;53.566;9.910;2023-07-20T03:58:07;13.80;99.90
38902;DHT22;24661;53.566;9.910;2023-07-20T04:00:34;13.90;99.90
38902;DHT22;24661;53.566;9.910;2023-07-20T04:02:59;14.00;99.90
38902;DHT22;24661;53.566;9.910;2023-07-20T04:05:25;14.00;99.90
38902;DHT22;24661;53.566;9.910;2023-07-20T04:07:51;13.90;99.90
38902;DHT22;24661;53.566;9.910;2023-07-20T04:14:16;14.00;99.90
38902;DHT22;24661;53.566;9.910;2023-07-20T04:16:41;14.00;99.90
38902;DHT22;24661;53.566;9.910;2023-07-20T04:19:07;14.00;99.90
38902;DHT22;24661;53.566;9.910;2023-07-20T04:21:40;14.00;99.90
38902;DHT22;24661;53.566;9.910;2023-07-20T04:24:06;13.90;99.90
38902;DHT22;24661;53.566;9.910;2023-07-20T04:26:32;13.90;99.90
38902;DHT22;24661;53.566;9.910;2023-07-20T04:28:57;14.00;99.90
38902;DHT22;24661;53.566;9.910;2023-07-20T04:31:24;14.00;99.90
38902;DHT22;24661;53.566;9.910;2023-07-20T04:33:50;14.10;99.90
38902;DHT22;24661;53.566;9.910;2023-07-20T04:36:16;14.10;99.90
38902;DHT22;24661;53.566;9.910;2023-07-20T04:38:45;14.20;99.90
38902;DHT22;24661;53.566;9.910;2023-07-20T04:41:11;14.20;99.90
38902;DHT22;24661;53.566;9.910;2023-07-20T04:43:44;14.20;99.90
38902;DHT22;24661;53.566;9.910;2023-07-20T04:46:10;14.20;99.90
38902;DHT22;24661;53.566;9.910;2023-07-20T04:48:36;14.20;99.90
38902;DHT22;24661;53.566;9.910;2023-07-20T04:51:02;14.20;99.90
38902;DHT22;24661;53.566;9.910;2023-07-20T04:53:27;14.10;99.90
38902;DHT22;24661;53.566;9.910;2023-07-20T04:55:53;14.10;99.90
38902;DHT22;24661;53.566;9.910;2023-07-20T04:58:20;14.10;99.90
38902;DHT22;24661;53.566;9.910;2023-07-20T05:00:47;14.20;99.90
38902;DHT22;24661;53.566;9.910;2023-07-20T05:03:13;14.10;99.90
38902;DHT22;24661;53.566;9.910;2023-07-20T05:05:38;14.20;99.90
38902;DHT22;24661;53.566;9.910;2023-07-20T05:08:04;14.20;99.90
38902;DHT22;24661;53.566;9.910;2023-07-20T05:10:30;14.40;99.90
38902;DHT22;24661;53.566;9.910;2023-07-20T05:12:55;14.40;99.90
38902;DHT22;24661;53.566;9.910;2023-07-20T05:15:21;14.50;99.90
38902;DHT22;24661;53.566;9.910;2023-07-20T05:17:46;14.50;99.90
38902;DHT22;24661;53.566;9.910;2023-07-20T05:20:14;14.50;99.90
38902;DHT22;24661;53.566;9.910;2023-07-20T05:22:40;14.50;99.90
38902;DHT22;24661;53.566;9.910;2023-07-20T05:25:08;14.50;99.90
38902;DHT22;24661;53.566;9.910;2023-07-20T05:27:36;14.00;99.90
38902;DHT22;24661;53.566;9.910;2023-07-20T05:30:01;14.50;99.90
38902;DHT22;24661;53.566;9.910;2023-07-20T05:32:27;14.60;99.90
38902;DHT22;24661;53.566;9.910;2023-07-20T05:34:53;14.50;99.90
38902;DHT22;24661;53.566;9.910;2023-07-20T05:37:19;14.50;99.90
38902;DHT22;24661;53.566;9.910;2023-07-20T05:39:45;14.50;99.90
38902;DHT22;24661;53.566;9.910;2023-07-20T05:42:11;15.50;99.90
38902;DHT22;24661;53.566;9.910;2023-07-20T05:44:36;14.50;99.90
38902;DHT22;24661;53.566;9.910;2023-07-20T05:47:02;14.50;99.90
38902;DHT22;24661;53.566;9.910;2023-07-20T05:49:30;14.50;99.90
38902;DHT22;24661;53.566;9.910;2023-07-20T05:51:56;14.60;99.90
38902;DHT22;24661;53.566;9.910;2023-07-20T05:54:23;14.60;99.90
38902;DHT22;24661;53.566;9.910;2023-07-20T05:56:49;14.60;99.90
38902;DHT22;24661;53.566;9.910;2023-07-20T05:59:14;14.60;99.90
38902;DHT22;24661;53.566;9.910;2023-07-20T06:01:40;14.70;99.90
38902;DHT22;24661;53.566;9.910;2023-07-20T06:04:06;14.70;99.90
38902;DHT22;24661;53.566;9.910;2023-07-20T06:06:33;14.80;99.90
38902;DHT22;24661;53.566;9.910;2023-07-20T06:09:00;14.90;99.90
38902;DHT22;24661;53.566;9.910;2023-07-20T06:11:29;14.90;99.90
38902;DHT22;24661;53.566;9.910;2023-07-20T06:13:56;14.90;99.90
38902;DHT22;24661;53.566;9.910;2023-07-20T06:16:22;14.90;99.90
38902;DHT22;24661;53.566;9.910;2023-07-20T06:18:47;14.90;99.90
38902;DHT22;24661;53.566;9.910;2023-07-20T06:21:13;15.00;99.90
38902;DHT22;24661;53.566;9.910;2023-07-20T06:23:41;15.10;99.90
38902;DHT22;24661;53.566;9.910;2023-07-20T06:26:07;15.20;99.90
38902;DHT22;24661;53.566;9.910;2023-07-20T06:28:33;15.40;99.90
38902;DHT22;24661;53.566;9.910;2023-07-20T06:31:00;15.50;99.90
38902;DHT22;24661;53.566;9.910;2023-07-20T06:33:26;15.50;99.90
38902;DHT22;24661;53.566;9.910;2023-07-20T06:35:51;15.40;99.90
38902;DHT22;24661;53.566;9.910;2023-07-20T06:38:18;15.30;99.90
38902;DHT22;24661;53.566;9.910;2023-07-20T06:40:45;15.20;99.90
38902;DHT22;24661;53.566;9.910;2023-07-20T06:43:11;15.20;99.90
38902;DHT22;24661;53.566;9.910;2023-07-20T06:45:37;15.20;99.90
38902;DHT22;24661;53.566;9.910;2023-07-20T06:48:02;15.20;99.90
38902;DHT22;24661;53.566;9.910;2023-07-20T06:50:28;15.20;99.90
38902;DHT22;24661;53.566;9.910;2023-07-20T06:52:54;15.30;99.90
38902;DHT22;24661;53.566;9.910;2023-07-20T06:55:19;15.30;99.90
38902;DHT22;24661;53.566;9.910;2023-07-20T06:57:45;15.50;99.90
38902;DHT22;24661;53.566;9.910;2023-07-20T07:00:11;15.70;99.90
38902;DHT22;24661;53.566;9.910;2023-07-20T07:02:37;15.80;99.90
38902;DHT22;24661;53.566;9.910;2023-07-20T07:05:03;15.80;99.90
38902;DHT22;24661;53.566;9.910;2023-07-20T07:07:28;15.80;99.90
38902;DHT22;24661;53.566;9.910;2023-07-20T07:09:54;15.70;99.90
38902;DHT22;24661;53.566;9.910;2023-07-20T07:12:19;15.70;99.90
38902;DHT22;24661;53.566;9.910;2023-07-20T07:14:45;15.80;99.90
38902;DHT22;24661;53.566;9.910;2023-07-20T07:17:10;15.90;99.90
38902;DHT22;24661;53.566;9.910;2023-07-20T07:19:37;16.00;99.90
38902;DHT22;24661;53.566;9.910;2023-07-20T07:22:04;16.20;99.90
38902;DHT22;24661;53.566;9.910;2023-07-20T07:24:29;16.30;99.90
38902;DHT22;24661;53.566;9.910;2023-07-20T07:26:59;16.40;99.90
38902;DHT22;24661;53.566;9.910;2023-07-20T07:29:25;16.40;99.90
38902;DHT22;24661;53.566;9.910;2023-07-20T07:31:51;16.40;99.90
38902;DHT22;24661;53.566;9.910;2023-07-20T07:34:16;16.30;99.90
38902;DHT22;24661;53.566;9.910;2023-07-20T07:36:43;16.20;99.90
38902;DHT22;24661;53.566;9.910;2023-07-20T07:39:08;16.10;99.90
38902;DHT22;24661;53.566;9.910;2023-07-20T07:41:35;16.00;99.90
38902;DHT22;24661;53.566;9.910;2023-07-20T07:44:00;16.00;99.90
38902;DHT22;24661;53.566;9.910;2023-07-20T07:46:26;16.10;99.90
38902;DHT22;24661;53.566;9.910;2023-07-20T07:48:51;16.20;99.90
38902;DHT22;24661;53.566;9.910;2023-07-20T07:51:17;16.30;99.90
38902;DHT22;24661;53.566;9.910;2023-07-20T07:53:42;16.40;99.90
38902;DHT22;24661;53.566;9.910;2023-07-20T07:56:09;16.50;99.90
38902;DHT22;24661;53.566;9.910;2023-07-20T07:58:35;16.60;99.90
38902;DHT22;24661;53.566;9.910;2023-07-20T08:01:00;16.70;99.90
38902;DHT22;24661;53.566;9.910;2023-07-20T08:03:26;16.80;99.90
38902;DHT22;24661;53.566;9.910;2023-07-20T08:05:54;17.10;99.90
38902;DHT22;24661;53.566;9.910;2023-07-20T08:08:24;17.20;99.90
38902;DHT22;24661;53.566;9.910;2023-07-20T08:10:52;17.20;99.90
38902;DHT22;24661;53.566;9.910;2023-07-20T08:13:18;17.20;99.90
38902;DHT22;24661;53.566;9.910;2023-07-20T08:15:48;17.10;99.90
38902;DHT22;24661;53.566;9.910;2023-07-20T08:18:14;17.20;99.90
38902;DHT22;24661;53.566;9.910;2023-07-20T08:20:39;17.20;99.90
38902;DHT22;24661;53.566;9.910;2023-07-20T08:23:08;17.30;99.90
38902;DHT22;24661;53.566;9.910;2023-07-20T08:25:36;17.50;99.90
38902;DHT22;24661;53.566;9.910;2023-07-20T08:28:05;17.60;99.90
38902;DHT22;24661;53.566;9.910;2023-07-20T08:30:43;17.70;99.90
38902;DHT22;24661;53.566;9.910;2023-07-20T08:33:09;17.80;99.90
38902;DHT22;24661;53.566;9.910;2023-07-20T08:35:35;18.00;99.90
38902;DHT22;24661;53.566;9.910;2023-07-20T08:38:01;18.00;99.90
38902;DHT22;24661;53.566;9.910;2023-07-20T08:40:27;18.00;99.90
38902;DHT22;24661;53.566;9.910;2023-07-20T08:42:54;17.80;99.90
38902;DHT22;24661;53.566;9.910;2023-07-20T08:45:22;17.60;99.90
38902;DHT22;24661;53.566;9.910;2023-07-20T08:47:48;17.30;99.90
38902;DHT22;24661;53.566;9.910;2023-07-20T08:50:16;17.10;99.90
38902;DHT22;24661;53.566;9.910;2023-07-20T08:52:42;17.00;99.90
38902;DHT22;24661;53.566;9.910;2023-07-20T08:55:08;17.00;99.90
38902;DHT22;24661;53.566;9.910;2023-07-20T08:57:34;17.10;99.90
38902;DHT22;24661;53.566;9.910;2023-07-20T09:00:03;17.30;99.90
38902;DHT22;24661;53.566;9.910;2023-07-20T09:02:49;17.40;99.90
38902;DHT22;24661;53.566;9.910;2023-07-20T09:05:17;17.50;99.90
38902;DHT22;24661;53.566;9.910;2023-07-20T09:07:43;17.70;99.90
38902;DHT22;24661;53.566;9.910;2023-07-20T09:10:08;17.80;99.90
38902;DHT22;24661;53.566;9.910;2023-07-20T09:12:36;18.00;99.90
38902;DHT22;24661;53.566;9.910;2023-07-20T09:15:03;18.10;99.90
38902;DHT22;24661;53.566;9.910;2023-07-20T09:17:28;18.30;99.90
38902;DHT22;24661;53.566;9.910;2023-07-20T09:19:54;18.60;99.90
38902;DHT22;24661;53.566;9.910;2023-07-20T09:22:20;18.90;99.90
38902;DHT22;24661;53.566;9.910;2023-07-20T09:24:46;18.80;99.90
38902;DHT22;24661;53.566;9.910;2023-07-20T09:27:12;18.50;99.90
38902;DHT22;24661;53.566;9.910;2023-07-20T09:29:51;17.80;99.90
38902;DHT22;24661;53.566;9.910;2023-07-20T09:32:21;17.00;99.90
38902;DHT22;24661;53.566;9.910;2023-07-20T09:34:47;16.60;99.90
38902;DHT22;24661;53.566;9.910;2023-07-20T09:37:13;16.20;99.90
38902;DHT22;24661;53.566;9.910;2023-07-20T09:39:45;16.10;99.90
38902;DHT22;24661;53.566;9.910;2023-07-20T09:42:12;16.00;99.90
38902;DHT22;24661;53.566;9.910;2023-07-20T09:44:43;15.90;99.90
38902;DHT22;24661;53.566;9.910;2023-07-20T09:47:09;15.90;99.90
38902;DHT22;24661;53.566;9.910;2023-07-20T09:49:41;16.00;99.90
38902;DHT22;24661;53.566;9.910;2023-07-20T09:52:11;16.20;99.90
38902;DHT22;24661;53.566;9.910;2023-07-20T09:54:40;16.30;99.90
38902;DHT22;24661;53.566;9.910;2023-07-20T09:57:09;16.40;99.90
38902;DHT22;24661;53.566;9.910;2023-07-20T09:59:37;16.50;99.90
38902;DHT22;24661;53.566;9.910;2023-07-20T10:02:07;16.70;99.90
38902;DHT22;24661;53.566;9.910;2023-07-20T10:04:36;17.00;99.90
38902;DHT22;24661;53.566;9.910;2023-07-20T10:07:05;17.10;99.90
38902;DHT22;24661;53.566;9.910;2023-07-20T10:09:37;17.40;99.90
38902;DHT22;24661;53.566;9.910;2023-07-20T10:12:03;17.70;99.90
38902;DHT22;24661;53.566;9.910;2023-07-20T10:14:30;17.80;99.90
38902;DHT22;24661;53.566;9.910;2023-07-20T10:17:01;17.70;99.90
38902;DHT22;24661;53.566;9.910;2023-07-20T10:19:33;17.60;99.90
38902;DHT22;24661;53.566;9.910;2023-07-20T10:22:10;17.90;99.90
38902;DHT22;24661;53.566;9.910;2023-07-20T10:24:36;18.20;99.90
38902;DHT22;24661;53.566;9.910;2023-07-20T10:27:02;18.20;99.90
38902;DHT22;24661;53.566;9.910;2023-07-20T10:29:29;18.30;99.90
38902;DHT22;24661;53.566;9.910;2023-07-20T10:31:56;18.60;99.90
38902;DHT22;24661;53.566;9.910;2023-07-20T10:34:22;18.70;99.90
38902;DHT22;24661;53.566;9.910;2023-07-20T10:36:48;18.60;99.90
38902;DHT22;24661;53.566;9.910;2023-07-20T10:39:46;18.60;99.90
38902;DHT22;24661;53.566;9.910;2023-07-20T10:42:12;18.40;99.90
38902;DHT22;24661;53.566;9.910;2023-07-20T10:44:41;18.50;99.90
38902;DHT22;24661;53.566;9.910;2023-07-20T10:47:11;18.50;99.90
38902;DHT22;24661;53.566;9.910;2023-07-20T10:49:57;18.40;99.90
38902;DHT22;24661;53.566;9.910;2023-07-20T10:52:23;18.40;99.90
38902;DHT22;24661;53.566;9.910;2023-07-20T10:54:49;18.40;99.90
38902;DHT22;24661;53.566;9.910;2023-07-20T10:57:29;18.40;99.90
38902;DHT22;24661;53.566;9.910;2023-07-20T11:00:11;18.20;99.90
38902;DHT22;24661;53.566;9.910;2023-07-20T11:02:45;18.20;99.90
38902;DHT22;24661;53.566;9.910;2023-07-20T11:05:33;18.10;99.90
38902;DHT22;24661;53.566;9.910;2023-07-20T11:08:12;18.20;99.90
38902;DHT22;24661;53.566;9.910;2023-07-20T11:10:38;18.10;99.90
38902;DHT22;24661;53.566;9.910;2023-07-20T11:13:17;18.10;99.90
38902;DHT22;24661;53.566;9.910;2023-07-20T11:18:28;17.50;99.90
38902;DHT22;24661;53.566;9.910;2023-07-20T11:20:54;17.50;99.90
38902;DHT22;24661;53.566;9.910;2023-07-20T11:23:20;17.40;99.90
38902;DHT22;24661;53.566;9.910;2023-07-20T11:25:46;17.50;99.90
38902;DHT22;24661;53.566;9.910;2023-07-20T11:28:12;17.50;99.90
38902;DHT22;24661;53.566;9.910;2023-07-20T11:30:38;17.50;99.90
38902;DHT22;24661;53.566;9.910;2023-07-20T11:33:05;17.60;99.90
38902;DHT22;24661;53.566;9.910;2023-07-20T11:35:34;17.60;99.90
38902;DHT22;24661;53.566;9.910;2023-07-20T11:38:00;17.70;99.90
38902;DHT22;24661;53.566;9.910;2023-07-20T11:40:26;17.80;99.90
38902;DHT22;24661;53.566;9.910;2023-07-20T11:42:51;18.00;99.90
38902;DHT22;24661;53.566;9.910;2023-07-20T11:45:19;18.10;99.90
38902;DHT22;24661;53.566;9.910;2023-07-20T11:47:45;18.40;99.90
38902;DHT22;24661;53.566;9.910;2023-07-20T11:50:11;18.60;99.90
38902;DHT22;24661;53.566;9.910;2023-07-20T11:52:39;18.80;99.90
38902;DHT22;24661;53.566;9.910;2023-07-20T11:55:07;19.10;99.90
38902;DHT22;24661;53.566;9.910;2023-07-20T11:57:32;19.20;99.90
38902;DHT22;24661;53.566;9.910;2023-07-20T12:00:02;19.30;99.90
38902;DHT22;24661;53.566;9.910;2023-07-20T12:02:31;19.40;99.90
38902;DHT22;24661;53.566;9.910;2023-07-20T12:04:57;19.60;99.90
38902;DHT22;24661;53.566;9.910;2023-07-20T12:07:25;19.70;99.90
38902;DHT22;24661;53.566;9.910;2023-07-20T12:10:11;21.00;99.90
38902;DHT22;24661;53.566;9.910;2023-07-20T12:12:41;19.80;99.90
38902;DHT22;24661;53.566;9.910;2023-07-20T12:15:16;19.80;99.90
38902;DHT22;24661;53.566;9.910;2023-07-20T12:17:46;19.70;99.90
38902;DHT22;24661;53.566;9.910;2023-07-20T12:20:31;19.60;99.90
38902;DHT22;24661;53.566;9.910;2023-07-20T12:23:12;19.40;99.90
38902;DHT22;24661;53.566;9.910;2023-07-20T12:25:46;19.10;99.90
38902;DHT22;24661;53.566;9.910;2023-07-20T12:28:16;19.00;99.90
38902;DHT22;24661;53.566;9.910;2023-07-20T12:30:43;18.80;99.90
38902;DHT22;24661;53.566;9.910;2023-07-20T12:33:11;18.70;99.90
38902;DHT22;24661;53.566;9.910;2023-07-20T12:35:42;18.70;99.90
38902;DHT22;24661;53.566;9.910;2023-07-20T12:38:11;18.80;99.90
38902;DHT22;24661;53.566;9.910;2023-07-20T12:40:37;18.90;99.90
38902;DHT22;24661;53.566;9.910;2023-07-20T12:43:02;19.00;99.90
38902;DHT22;24661;53.566;9.910;2023-07-20T12:45:29;19.10;99.90
38902;DHT22;24661;53.566;9.910;2023-07-20T12:47:55;19.10;99.90
38902;DHT22;24661;53.566;9.910;2023-07-20T12:50:20;19.20;99.90
38902;DHT22;24661;53.566;9.910;2023-07-20T12:52:46;19.40;99.90
38902;DHT22;24661;53.566;9.910;2023-07-20T12:55:11;19.60;99.90
38902;DHT22;24661;53.566;9.910;2023-07-20T12:57:38;19.90;99.90
38902;DHT22;24661;53.566;9.910;2023-07-20T13:00:05;19.90;99.90
38902;DHT22;24661;53.566;9.910;2023-07-20T13:02:32;19.90;99.90
38902;DHT22;24661;53.566;9.910;2023-07-20T13:04:58;20.00;99.90
38902;DHT22;24661;53.566;9.910;2023-07-20T13:07:32;20.30;99.90
38902;DHT22;24661;53.566;9.910;2023-07-20T13:09:59;20.30;99.90
38902;DHT22;24661;53.566;9.910;2023-07-20T13:12:26;20.20;99.90
38902;DHT22;24661;53.566;9.910;2023-07-20T13:14:52;19.90;99.90
38902;DHT22;24661;53.566;9.910;2023-07-20T13:17:18;19.70;99.90
38902;DHT22;24661;53.566;9.910;2023-07-20T13:19:43;19.80;99.90
38902;DHT22;24661;53.566;9.910;2023-07-20T13:22:09;19.90;99.90
38902;DHT22;24661;53.566;9.910;2023-07-20T13:24:35;20.10;99.90
38902;DHT22;24661;53.566;9.910;2023-07-20T13:27:00;20.00;99.90
38902;DHT22;24661;53.566;9.910;2023-07-20T13:29:26;20.10;99.90
38902;DHT22;24661;53.566;9.910;2023-07-20T13:31:51;20.20;99.90
38902;DHT22;24661;53.566;9.910;2023-07-20T13:34:17;20.30;99.90
38902;DHT22;24661;53.566;9.910;2023-07-20T13:36:42;20.30;99.90
38902;DHT22;24661;53.566;9.910;2023-07-20T13:39:08;20.40;99.90
38902;DHT22;24661;53.566;9.910;2023-07-20T13:41:34;20.60;99.90
38902;DHT22;24661;53.566;9.910;2023-07-20T13:44:00;20.70;99.90
38902;DHT22;24661;53.566;9.910;2023-07-20T13:46:25;20.80;99.90
38902;DHT22;24661;53.566;9.910;2023-07-20T13:48:51;20.90;99.90
38902;DHT22;24661;53.566;9.910;2023-07-20T13:51:17;20.80;99.90
38902;DHT22;24661;53.566;9.910;2023-07-20T13:53:45;20.70;99.90
38902;DHT22;24661;53.566;9.910;2023-07-20T13:56:11;20.60;99.90
38902;DHT22;24661;53.566;9.910;2023-07-20T13:58:37;20.60;99.90
38902;DHT22;24661;53.566;9.910;2023-07-20T14:01:02;20.50;99.90
38902;DHT22;24661;53.566;9.910;2023-07-20T14:03:28;20.30;99.90
38902;DHT22;24661;53.566;9.910;2023-07-20T14:05:53;20.30;99.90
38902;DHT22;24661;53.566;9.910;2023-07-20T14:08:19;20.10;99.90
38902;DHT22;24661;53.566;9.910;2023-07-20T14:10:44;20.00;99.90
38902;DHT22;24661;53.566;9.910;2023-07-20T14:13:10;20.00;99.90
38902;DHT22;24661;53.566;9.910;2023-07-20T14:15:35;20.20;99.90
38902;DHT22;24661;53.566;9.910;2023-07-20T14:18:01;20.20;99.90
38902;DHT22;24661;53.566;9.910;2023-07-20T14:20:27;20.40;99.90
38902;DHT22;24661;53.566;9.910;2023-07-20T14:22:52;20.40;99.90
38902;DHT22;24661;53.566;9.910;2023-07-20T14:25:18;20.30;99.90
38902;DHT22;24661;53.566;9.910;2023-07-20T14:27:43;20.30;99.90
38902;DHT22;24661;53.566;9.910;2023-07-20T14:30:09;20.10;99.90
38902;DHT22;24661;53.566;9.910;2023-07-20T14:32:35;20.00;99.90
38902;DHT22;24661;53.566;9.910;2023-07-20T14:35:01;19.90;99.90
38902;DHT22;24661;53.566;9.910;2023-07-20T14:37:26;20.00;99.90
38902;DHT22;24661;53.566;9.910;2023-07-20T14:39:52;20.10;99.90
38902;DHT22;24661;53.566;9.910;2023-07-20T14:42:18;20.00;99.90
38902;DHT22;24661;53.566;9.910;2023-07-20T14:44:44;20.00;99.90
38902;DHT22;24661;53.566;9.910;2023-07-20T14:47:09;19.90;99.90
38902;DHT22;24661;53.566;9.910;2023-07-20T14:49:35;19.90;99.90
38902;DHT22;24661;53.566;9.910;2023-07-20T14:52:01;19.90;99.90
38902;DHT22;24661;53.566;9.910;2023-07-20T14:54:27;19.90;99.90
38902;DHT22;24661;53.566;9.910;2023-07-20T14:56:53;19.90;99.90
38902;DHT22;24661;53.566;9.910;2023-07-20T14:59:19;20.00;99.90
38902;DHT22;24661;53.566;9.910;2023-07-20T15:01:45;20.00;99.90
38902;DHT22;24661;53.566;9.910;2023-07-20T15:04:11;19.90;99.90
38902;DHT22;24661;53.566;9.910;2023-07-20T15:06:37;19.90;99.90
38902;DHT22;24661;53.566;9.910;2023-07-20T15:09:04;19.80;99.90
38902;DHT22;24661;53.566;9.910;2023-07-20T15:11:30;19.60;99.90
38902;DHT22;24661;53.566;9.910;2023-07-20T15:13:55;19.70;99.90
38902;DHT22;24661;53.566;9.910;2023-07-20T15:16:23;19.70;99.90
38902;DHT22;24661;53.566;9.910;2023-07-20T15:18:48;19.70;99.90
38902;DHT22;24661;53.566;9.910;2023-07-20T15:21:14;19.60;99.90
38902;DHT22;24661;53.566;9.910;2023-07-20T15:23:40;19.60;99.90
38902;DHT22;24661;53.566;9.910;2023-07-20T15:26:06;19.70;99.90
38902;DHT22;24661;53.566;9.910;2023-07-20T15:28:32;19.80;99.90
38902;DHT22;24661;53.566;9.910;2023-07-20T15:31:02;19.90;99.90
38902;DHT22;24661;53.566;9.910;2023-07-20T15:33:28;19.90;99.90
38902;DHT22;24661;53.566;9.910;2023-07-20T15:35:54;19.90;99.90
38902;DHT22;24661;53.566;9.910;2023-07-20T15:38:19;19.70;99.90
38902;DHT22;24661;53.566;9.910;2023-07-20T15:40:46;19.40;99.90
38902;DHT22;24661;53.566;9.910;2023-07-20T15:43:12;19.20;99.90